createdAt,value
2022-08-03T00:01:49.887Z,77.04
2022-08-03T00:06:52.264Z,77.07
2022-08-03T00:11:54.662Z,77.15
2022-08-03T00:16:57.676Z,76.92
2022-08-03T00:22:00.314Z,76.69
2022-08-03T00:27:03.145Z,76.84
2022-08-03T00:32:05.863Z,77.05
2022-08-03T00:37:08.778Z,76.90
2022-08-03T00:42:11.529Z,76.82
2022-08-03T00:47:14.022Z,76.83
2022-08-03T00:52:17.178Z,77.33
2022-08-03T00:57:19.596Z,77.19
2022-08-03T01:02:22.125Z,77.07
2022-08-03T01:07:40.391Z,77.07
2022-08-03T01:12:52.616Z,77.01
2022-08-03T01:17:59.562Z,76.63
2022-08-03T01:23:33.902Z,76.54
2022-08-03T01:28:58.217Z,76.60
2022-08-03T01:34:05.590Z,77.01
2022-08-03T01:39:12.502Z,76.84
2022-08-03T01:44:29.417Z,76.54
2022-08-03T01:49:38.393Z,76.62
2022-08-03T01:54:45.209Z,76.74
2022-08-03T01:59:50.579Z,76.64
2022-08-03T02:04:54.202Z,76.78
2022-08-03T02:09:58.640Z,76.84
2022-08-03T02:15:02.283Z,77.17
2022-08-03T02:30:46.178Z,77.26
2022-08-03T02:35:55.171Z,77.22
2022-08-03T02:40:58.695Z,77.19
2022-08-03T02:46:01.272Z,77.16
2022-08-03T02:51:05.062Z,77.28
2022-08-03T03:06:39.128Z,77.16
2022-08-03T03:11:44.047Z,77.14
2022-08-03T03:16:47.904Z,77.28
2022-08-03T03:21:55.653Z,77.45
2022-08-03T03:26:58.690Z,77.42
2022-08-03T03:32:02.608Z,77.51
2022-08-03T03:37:05.923Z,77.71
2022-08-03T03:42:08.489Z,77.86
2022-08-03T03:54:08.708Z,77.44
2022-08-03T03:59:14.569Z,77.35
2022-08-03T04:04:39.834Z,76.98
2022-08-03T04:10:00.997Z,76.82
2022-08-03T04:15:22.593Z,76.70
2022-08-03T04:20:33.811Z,76.68
2022-08-03T04:25:41.701Z,76.14
2022-08-03T04:30:56.767Z,75.99
2022-08-03T04:36:04.087Z,76.03
2022-08-03T04:41:13.033Z,75.79
2022-08-03T04:46:20.361Z,75.48
2022-08-03T04:51:26.764Z,75.07
2022-08-03T04:56:29.304Z,74.93
2022-08-03T05:12:40.566Z,74.19
2022-08-03T05:17:45.655Z,73.93
2022-08-03T05:22:48.030Z,73.24
2022-08-03T05:27:52.188Z,72.71
2022-08-03T06:24:25.976Z,59.26
2022-08-03T06:47:17.943Z,52.06
2022-08-03T06:52:38.156Z,48.53
2022-08-03T06:57:41.078Z,49.71
2022-08-03T07:02:43.513Z,48.84
2022-08-03T07:07:46.178Z,49.98
2022-08-03T07:12:55.967Z,49.37
2022-08-03T07:18:14.841Z,49.17
2022-08-03T07:23:19.306Z,48.84
2022-08-03T07:28:22.074Z,48.50
2022-08-03T07:33:24.621Z,48.04
2022-08-03T07:38:27.377Z,47.50
2022-08-03T07:43:30.057Z,46.54
2022-08-03T07:48:32.570Z,45.91
2022-08-03T07:53:37.824Z,44.67
2022-08-03T07:58:49.713Z,40.45
2022-08-03T08:03:53.710Z,40.21
2022-08-03T08:09:01.575Z,39.98
2022-08-03T08:14:05.283Z,38.93
2022-08-03T08:19:07.681Z,36.10
2022-08-03T08:24:13.410Z,35.14
2022-08-03T08:29:23.258Z,35.02
2022-08-03T08:34:25.785Z,36.55
2022-08-03T08:39:28.173Z,36.52
2022-08-03T08:44:30.673Z,35.60
2022-08-03T08:49:36.328Z,35.38
2022-08-03T08:54:41.468Z,36.35
2022-08-03T08:59:48.395Z,36.71
2022-08-03T09:04:53.176Z,35.95
2022-08-03T09:10:11.672Z,35.78
2022-08-03T09:22:28.252Z,35.80
2022-08-03T09:27:43.457Z,35.25
2022-08-03T09:32:47.104Z,35.67
2022-08-03T09:38:13.813Z,34.62
2022-08-03T09:43:17.033Z,35.50
2022-08-03T09:48:34.567Z,35.32
2022-08-03T09:53:57.258Z,34.34
2022-08-03T09:59:02.333Z,32.85
2022-08-03T10:04:05.371Z,31.29
2022-08-03T10:09:16.526Z,31.28
2022-08-03T10:14:19.599Z,30.59
2022-08-03T10:19:22.523Z,30.75
2022-08-03T10:24:28.120Z,30.84
2022-08-03T10:29:36.887Z,31.14
2022-08-03T10:34:44.693Z,30.72
2022-08-03T10:39:54.886Z,30.45
2022-08-03T10:45:22.458Z,29.96
2022-08-03T10:50:25.891Z,30.00
2022-08-03T10:56:01.710Z,30.66
2022-08-03T11:01:09.695Z,30.70
2022-08-03T11:06:24.475Z,30.02
2022-08-03T11:11:28.549Z,29.13
2022-08-03T11:16:49.602Z,29.74
2022-08-03T11:21:53.804Z,30.14
2022-08-03T11:27:20.195Z,30.20
2022-08-03T11:32:46.442Z,29.59
2022-08-03T11:38:01.998Z,29.32
2022-08-03T11:43:31.233Z,28.65
2022-08-03T11:48:35.259Z,29.67
2022-08-03T11:53:41.788Z,29.47
2022-08-03T11:59:01.191Z,29.25
2022-08-03T12:04:11.697Z,29.90
2022-08-03T12:09:17.348Z,29.59
2022-08-03T12:14:48.492Z,28.82
2022-08-03T12:19:46.381Z,28.45
2022-08-03T12:25:39.247Z,28.63
2022-08-03T12:30:43.507Z,28.40
2022-08-03T12:36:06.183Z,28.92
2022-08-03T12:41:16.603Z,27.53
2022-08-03T12:46:19.629Z,27.25
2022-08-03T12:51:21.997Z,26.75
2022-08-03T12:56:25.112Z,27.54
2022-08-03T13:01:36.644Z,27.92
2022-08-03T13:06:39.140Z,28.84
2022-08-03T13:11:57.759Z,28.99
2022-08-03T13:17:06.127Z,27.37
2022-08-03T13:22:17.176Z,27.63
2022-08-03T13:28:04.079Z,27.23
2022-08-03T13:32:42.540Z,26.66
2022-08-03T13:37:47.818Z,25.19
2022-08-03T13:42:51.551Z,24.78
2022-08-03T13:47:54.609Z,25.23
2022-08-03T13:52:57.766Z,24.90
2022-08-03T13:58:04.030Z,23.62
2022-08-03T14:03:15.455Z,24.22
2022-08-03T14:08:18.131Z,24.17
2022-08-03T14:13:20.560Z,21.96
2022-08-03T14:19:33.344Z,22.29
2022-08-03T14:24:55.313Z,21.98
2022-08-03T14:29:59.806Z,21.43
2022-08-03T14:35:02.516Z,20.13
2022-08-03T14:40:05.918Z,19.61
2022-08-03T14:45:09.594Z,19.85
2022-08-03T14:50:37.685Z,19.42
2022-08-03T14:55:49.743Z,18.14
2022-08-03T15:00:55.360Z,18.35
2022-08-03T15:05:57.810Z,18.61
2022-08-03T15:11:00.206Z,19.43
2022-08-03T15:16:02.678Z,19.82
2022-08-03T15:21:06.577Z,19.32
2022-08-03T15:26:32.687Z,18.58
2022-08-03T15:31:38.330Z,18.58
2022-08-03T15:36:40.768Z,17.40
2022-08-03T15:41:43.192Z,17.61
2022-08-03T15:46:46.101Z,16.65
2022-08-03T15:51:48.677Z,16.31
2022-08-03T15:56:51.141Z,15.36
2022-08-03T16:01:56.473Z,15.27
2022-08-03T16:06:58.985Z,14.86
2022-08-03T16:12:01.374Z,14.59
2022-08-03T16:17:04.527Z,14.82
2022-08-03T16:22:08.037Z,14.80
2022-08-03T16:27:17.316Z,15.36
2022-08-03T16:32:34.071Z,16.16
2022-08-03T16:37:38.667Z,17.54
2022-08-03T16:42:41.773Z,19.10
2022-08-03T16:47:44.253Z,20.68
2022-08-03T16:52:48.427Z,21.77
2022-08-03T16:57:59.818Z,22.99
2022-08-03T17:03:19.014Z,24.14
2022-08-03T17:08:26.757Z,25.22
2022-08-03T17:13:39.052Z,25.81
2022-08-03T17:18:52.588Z,26.27
2022-08-03T17:24:03.137Z,27.18
2022-08-03T17:35:47.127Z,29.40
2022-08-03T17:40:56.262Z,30.33
2022-08-03T17:45:58.845Z,31.57
2022-08-03T17:51:06.703Z,32.74
2022-08-03T17:56:44.941Z,33.49
2022-08-03T18:02:30.496Z,34.34
2022-08-03T18:07:41.352Z,35.59
2022-08-03T18:12:53.104Z,36.43
2022-08-03T18:18:10.861Z,37.10
2022-08-03T18:23:25.154Z,37.47
2022-08-03T18:28:38.395Z,38.93
2022-08-03T18:34:16.919Z,39.42
2022-08-03T18:39:05.185Z,40.05
2022-08-03T18:44:53.358Z,40.48
2022-08-03T18:49:41.805Z,41.97
2022-08-03T18:55:04.485Z,43.46
2022-08-03T19:00:17.105Z,44.44
2022-08-03T19:05:53.709Z,44.68
2022-08-03T19:10:57.735Z,45.13
2022-08-03T19:16:04.589Z,45.83
2022-08-03T19:26:36.858Z,47.26
2022-08-03T19:31:39.919Z,48.37
2022-08-03T19:37:02.638Z,49.15
2022-08-03T19:42:20.114Z,50.07
2022-08-03T19:47:29.709Z,51.13
2022-08-03T19:52:35.374Z,51.66
2022-08-03T19:57:43.940Z,52.38
2022-08-03T20:02:50.902Z,53.34
2022-08-03T20:07:54.213Z,54.27
2022-08-03T20:12:57.425Z,55.03
2022-08-03T20:18:00.203Z,55.95
2022-08-03T20:23:13.708Z,55.73
2022-08-03T20:28:28.977Z,56.44
2022-08-03T20:33:46.195Z,57.27
2022-08-03T20:38:52.133Z,57.92
2022-08-03T20:43:59.071Z,59.99
2022-08-03T20:49:03.816Z,60.92
2022-08-03T20:59:38.464Z,62.51
2022-08-03T21:04:50.190Z,62.74
2022-08-03T21:09:57.055Z,63.08
2022-08-03T21:13:02.096Z,46.44
2022-08-03T21:13:07.723Z,61.23
2022-08-03T21:15:03.422Z,63.07
2022-08-03T21:20:08.221Z,63.72
2022-08-03T21:25:15.023Z,64.86
2022-08-03T21:30:18.871Z,65.91
2022-08-03T21:35:23.042Z,66.55
2022-08-03T21:40:25.762Z,67.08
2022-08-03T21:45:28.168Z,67.80
2022-08-03T21:50:34.792Z,68.44
2022-08-03T21:55:39.878Z,68.77
2022-08-03T22:00:43.149Z,69.32
2022-08-03T22:05:45.758Z,69.51
2022-08-03T22:10:51.145Z,69.39
2022-08-03T22:15:53.779Z,69.47
2022-08-03T22:20:57.360Z,69.84
2022-08-03T22:26:04.081Z,70.12
2022-08-03T22:31:30.679Z,70.20
2022-08-03T22:37:39.828Z,70.50
2022-08-03T22:42:52.437Z,70.96
2022-08-03T22:47:56.088Z,70.91
2022-08-03T22:52:58.482Z,71.22
2022-08-03T22:58:00.879Z,71.21
2022-08-03T23:03:06.161Z,71.36
2022-08-03T23:08:09.563Z,71.56
2022-08-03T23:13:13.196Z,71.46
2022-08-03T23:18:16.355Z,71.28
2022-08-03T23:23:20.760Z,71.42
2022-08-03T23:28:24.884Z,71.61
2022-08-03T23:33:29.100Z,71.43
2022-08-03T23:38:35.673Z,71.19
2022-08-03T23:43:51.502Z,70.89
2022-08-03T23:48:56.488Z,70.62
2022-08-03T23:54:31.103Z,70.29
2022-08-03T23:59:42.455Z,70.00
